sensor_id;sensor_type;location;lat;lon;timestamp;pressure;altitude;pressure_sealevel;temperature;humidity
22031;BME280;11179;52.106;21.024;2022-07-23T00:02:23;100381.25;;;20.93;60.45
22031;BME280;11179;52.106;21.024;2022-07-23T00:04:48;100399.31;;;20.87;60.85
22031;BME280;11179;52.106;21.024;2022-07-23T00:07:14;100398.31;;;20.83;60.83
22031;BME280;11179;52.106;21.024;2022-07-23T00:09:39;100400.13;;;20.79;61.12
22031;BME280;11179;52.106;21.024;2022-07-23T00:12:05;100398.81;;;20.77;61.28
22031;BME280;11179;52.106;21.024;2022-07-23T00:14:30;100405.00;;;20.73;61.28
22031;BME280;11179;52.106;21.024;2022-07-23T00:16:56;100404.50;;;20.71;61.03
22031;BME280;11179;52.106;21.024;2022-07-23T00:19:21;100403.19;;;20.69;61.06
22031;BME280;11179;52.106;21.024;2022-07-23T00:21:46;100403.00;;;20.65;61.14
22031;BME280;11179;52.106;21.024;2022-07-23T00:24:12;100400.06;;;20.62;61.29
22031;BME280;11179;52.106;21.024;2022-07-23T00:26:37;100398.25;;;20.57;61.58
22031;BME280;11179;52.106;21.024;2022-07-23T00:29:02;100400.34;;;20.52;61.47
22031;BME280;11179;52.106;21.024;2022-07-23T00:31:28;100398.22;;;20.49;61.61
22031;BME280;11179;52.106;21.024;2022-07-23T00:33:53;100402.16;;;20.48;61.43
22031;BME280;11179;52.106;21.024;2022-07-23T00:36:22;100398.06;;;20.45;61.69
22031;BME280;11179;52.106;21.024;2022-07-23T00:38:49;100394.25;;;20.41;61.87
22031;BME280;11179;52.106;21.024;2022-07-23T00:41:14;100391.28;;;20.37;61.73
22031;BME280;11179;52.106;21.024;2022-07-23T00:43:40;100393.59;;;20.35;61.56
22031;BME280;11179;52.106;21.024;2022-07-23T00:46:05;100392.28;;;20.33;61.63
22031;BME280;11179;52.106;21.024;2022-07-23T00:48:30;100396.53;;;20.30;61.90
22031;BME280;11179;52.106;21.024;2022-07-23T00:50:56;100394.69;;;20.26;62.08
22031;BME280;11179;52.106;21.024;2022-07-23T00:53:22;100388.97;;;20.22;62.41
22031;BME280;11179;52.106;21.024;2022-07-23T00:55:47;100394.34;;;20.19;62.51
22031;BME280;11179;52.106;21.024;2022-07-23T00:58:14;100401.72;;;20.15;62.59
22031;BME280;11179;52.106;21.024;2022-07-23T01:00:39;100396.28;;;20.10;62.70
22031;BME280;11179;52.106;21.024;2022-07-23T01:03:05;100393.63;;;20.04;63.09
22031;BME280;11179;52.106;21.024;2022-07-23T01:05:30;100402.31;;;20.03;62.78
22031;BME280;11179;52.106;21.024;2022-07-23T01:07:56;100399.53;;;20.03;62.71
22031;BME280;11179;52.106;21.024;2022-07-23T01:10:21;100394.88;;;19.98;62.89
22031;BME280;11179;52.106;21.024;2022-07-23T01:12:56;100395.84;;;19.94;63.20
22031;BME280;11179;52.106;21.024;2022-07-23T01:15:22;100392.56;;;19.92;63.41
22031;BME280;11179;52.106;21.024;2022-07-23T01:17:48;100403.19;;;19.90;63.22
22031;BME280;11179;52.106;21.024;2022-07-23T01:20:13;100404.66;;;19.87;63.44
22031;BME280;11179;52.106;21.024;2022-07-23T01:22:39;100404.97;;;19.86;63.41
22031;BME280;11179;52.106;21.024;2022-07-23T01:25:05;100409.25;;;19.83;63.19
22031;BME280;11179;52.106;21.024;2022-07-23T01:27:30;100405.13;;;19.81;63.30
22031;BME280;11179;52.106;21.024;2022-07-23T01:29:57;100402.66;;;19.79;63.49
22031;BME280;11179;52.106;21.024;2022-07-23T01:32:22;100401.31;;;19.77;63.75
22031;BME280;11179;52.106;21.024;2022-07-23T01:34:47;100397.53;;;19.73;63.75
22031;BME280;11179;52.106;21.024;2022-07-23T01:37:13;100402.94;;;19.69;64.28
22031;BME280;11179;52.106;21.024;2022-07-23T01:39:38;100408.31;;;19.65;63.81
22031;BME280;11179;52.106;21.024;2022-07-23T01:42:04;100406.16;;;19.62;63.85
22031;BME280;11179;52.106;21.024;2022-07-23T01:44:30;100401.22;;;19.59;64.01
22031;BME280;11179;52.106;21.024;2022-07-23T01:46:55;100403.84;;;19.56;64.14
22031;BME280;11179;52.106;21.024;2022-07-23T01:49:21;100404.16;;;19.54;64.21
22031;BME280;11179;52.106;21.024;2022-07-23T01:51:46;100402.00;;;19.51;64.25
22031;BME280;11179;52.106;21.024;2022-07-23T01:54:32;100398.69;;;19.49;64.17
22031;BME280;11179;52.106;21.024;2022-07-23T01:56:58;100395.09;;;19.49;64.39
22031;BME280;11179;52.106;21.024;2022-07-23T01:59:24;100414.06;;;19.47;64.23
22031;BME280;11179;52.106;21.024;2022-07-23T02:01:50;100399.16;;;19.43;64.40
22031;BME280;11179;52.106;21.024;2022-07-23T02:04:20;100407.81;;;19.41;64.51
22031;BME280;11179;52.106;21.024;2022-07-23T02:06:45;100404.31;;;19.36;64.52
22031;BME280;11179;52.106;21.024;2022-07-23T02:09:11;100410.72;;;19.36;64.43
22031;BME280;11179;52.106;21.024;2022-07-23T02:11:36;100402.69;;;19.34;64.51
22031;BME280;11179;52.106;21.024;2022-07-23T02:14:02;100399.69;;;19.31;64.46
22031;BME280;11179;52.106;21.024;2022-07-23T02:16:27;100399.22;;;19.29;64.62
22031;BME280;11179;52.106;21.024;2022-07-23T02:18:52;100407.56;;;19.29;64.54
22031;BME280;11179;52.106;21.024;2022-07-23T02:21:18;100405.41;;;19.26;64.89
22031;BME280;11179;52.106;21.024;2022-07-23T02:23:43;100403.56;;;19.21;64.84
22031;BME280;11179;52.106;21.024;2022-07-23T02:26:09;100404.16;;;19.18;65.07
22031;BME280;11179;52.106;21.024;2022-07-23T02:28:34;100403.97;;;19.15;65.07
22031;BME280;11179;52.106;21.024;2022-07-23T02:30:59;100402.63;;;19.12;65.12
22031;BME280;11179;52.106;21.024;2022-07-23T02:33:25;100397.38;;;19.11;65.05
22031;BME280;11179;52.106;21.024;2022-07-23T02:35:50;100393.28;;;19.08;64.95
22031;BME280;11179;52.106;21.024;2022-07-23T02:38:16;100393.06;;;19.05;65.18
22031;BME280;11179;52.106;21.024;2022-07-23T02:40:41;100384.84;;;18.99;65.11
22031;BME280;11179;52.106;21.024;2022-07-23T02:43:06;100387.63;;;18.99;64.95
22031;BME280;11179;52.106;21.024;2022-07-23T02:45:32;100379.09;;;18.96;64.95
22031;BME280;11179;52.106;21.024;2022-07-23T02:47:57;100391.03;;;18.96;64.99
22031;BME280;11179;52.106;21.024;2022-07-23T02:50:23;100381.34;;;18.94;64.99
22031;BME280;11179;52.106;21.024;2022-07-23T02:52:48;100380.53;;;18.93;64.76
22031;BME280;11179;52.106;21.024;2022-07-23T02:55:14;100374.16;;;18.93;64.81
22031;BME280;11179;52.106;21.024;2022-07-23T02:57:39;100377.44;;;18.95;64.64
22031;BME280;11179;52.106;21.024;2022-07-23T03:00:06;100373.22;;;18.97;64.58
22031;BME280;11179;52.106;21.024;2022-07-23T03:02:32;100377.66;;;18.98;64.70
22031;BME280;11179;52.106;21.024;2022-07-23T03:04:57;100382.59;;;19.02;64.41
22031;BME280;11179;52.106;21.024;2022-07-23T03:07:23;100377.03;;;19.02;64.60
22031;BME280;11179;52.106;21.024;2022-07-23T03:09:48;100378.03;;;19.06;64.59
22031;BME280;11179;52.106;21.024;2022-07-23T03:12:13;100376.38;;;19.05;64.57
22031;BME280;11179;52.106;21.024;2022-07-23T03:14:39;100374.91;;;19.07;64.52
22031;BME280;11179;52.106;21.024;2022-07-23T03:17:05;100387.38;;;19.10;64.42
22031;BME280;11179;52.106;21.024;2022-07-23T03:19:30;100383.97;;;19.13;64.53
22031;BME280;11179;52.106;21.024;2022-07-23T03:21:56;100390.66;;;19.25;64.46
22031;BME280;11179;52.106;21.024;2022-07-23T03:24:21;100390.09;;;19.37;64.49
22031;BME280;11179;52.106;21.024;2022-07-23T03:26:49;100387.28;;;19.59;64.20
22031;BME280;11179;52.106;21.024;2022-07-23T03:29:14;100382.69;;;19.86;63.78
22031;BME280;11179;52.106;21.024;2022-07-23T03:31:39;100391.38;;;20.15;63.36
22031;BME280;11179;52.106;21.024;2022-07-23T03:34:05;100391.66;;;20.45;63.02
22031;BME280;11179;52.106;21.024;2022-07-23T03:36:30;100386.13;;;20.70;62.33
22031;BME280;11179;52.106;21.024;2022-07-23T03:38:55;100382.06;;;20.94;61.83
22031;BME280;11179;52.106;21.024;2022-07-23T03:41:21;100388.34;;;21.17;61.56
22031;BME280;11179;52.106;21.024;2022-07-23T03:43:46;100390.94;;;21.39;61.24
22031;BME280;11179;52.106;21.024;2022-07-23T03:46:12;100393.91;;;21.60;60.62
22031;BME280;11179;52.106;21.024;2022-07-23T03:48:37;100391.22;;;21.80;60.31
22031;BME280;11179;52.106;21.024;2022-07-23T03:51:03;100390.16;;;22.02;59.76
22031;BME280;11179;52.106;21.024;2022-07-23T03:53:28;100391.91;;;22.24;59.52
22031;BME280;11179;52.106;21.024;2022-07-23T03:55:54;100387.22;;;22.45;58.82
22031;BME280;11179;52.106;21.024;2022-07-23T03:58:19;100396.59;;;22.70;58.34
22031;BME280;11179;52.106;21.024;2022-07-23T04:00:44;100390.84;;;22.96;57.46
22031;BME280;11179;52.106;21.024;2022-07-23T04:03:10;100392.13;;;23.19;57.00
22031;BME280;11179;52.106;21.024;2022-07-23T04:05:35;100392.94;;;23.41;57.16
22031;BME280;11179;52.106;21.024;2022-07-23T04:08:01;100395.88;;;23.65;56.51
22031;BME280;11179;52.106;21.024;2022-07-23T04:10:26;100395.59;;;23.91;56.09
22031;BME280;11179;52.106;21.024;2022-07-23T04:12:51;100400.88;;;24.17;55.12
22031;BME280;11179;52.106;21.024;2022-07-23T04:15:17;100401.06;;;24.45;54.63
22031;BME280;11179;52.106;21.024;2022-07-23T04:17:42;100398.69;;;24.71;53.60
22031;BME280;11179;52.106;21.024;2022-07-23T04:20:09;100393.66;;;25.01;53.29
22031;BME280;11179;52.106;21.024;2022-07-23T04:22:35;100396.38;;;25.25;52.46
22031;BME280;11179;52.106;21.024;2022-07-23T04:25:00;100390.19;;;25.48;52.20
22031;BME280;11179;52.106;21.024;2022-07-23T04:27:26;100397.16;;;25.66;51.09
22031;BME280;11179;52.106;21.024;2022-07-23T04:29:51;100390.56;;;25.74;50.98
22031;BME280;11179;52.106;21.024;2022-07-23T04:32:16;100390.00;;;25.84;50.33
22031;BME280;11179;52.106;21.024;2022-07-23T04:34:42;100386.16;;;26.05;50.27
22031;BME280;11179;52.106;21.024;2022-07-23T04:37:07;100394.44;;;26.29;49.52
22031;BME280;11179;52.106;21.024;2022-07-23T04:39:33;100390.31;;;26.58;49.21
22031;BME280;11179;52.106;21.024;2022-07-23T04:41:58;100384.56;;;26.86;48.17
22031;BME280;11179;52.106;21.024;2022-07-23T04:44:23;100372.22;;;27.10;47.97
22031;BME280;11179;52.106;21.024;2022-07-23T04:46:49;100375.34;;;27.43;47.09
22031;BME280;11179;52.106;21.024;2022-07-23T04:49:14;100372.06;;;27.60;46.52
22031;BME280;11179;52.106;21.024;2022-07-23T04:51:39;100384.72;;;27.89;45.99
22031;BME280;11179;52.106;21.024;2022-07-23T04:54:05;100383.31;;;28.22;45.31
22031;BME280;11179;52.106;21.024;2022-07-23T04:56:30;100394.06;;;28.39;44.98
22031;BME280;11179;52.106;21.024;2022-07-23T04:58:55;100392.09;;;28.66;44.55
22031;BME280;11179;52.106;21.024;2022-07-23T05:01:21;100395.72;;;28.93;43.89
22031;BME280;11179;52.106;21.024;2022-07-23T05:03:46;100395.50;;;29.05;43.74
22031;BME280;11179;52.106;21.024;2022-07-23T05:06:13;100397.22;;;29.09;42.97
22031;BME280;11179;52.106;21.024;2022-07-23T05:08:39;100400.72;;;29.29;42.64
22031;BME280;11179;52.106;21.024;2022-07-23T05:11:04;100401.03;;;29.58;42.54
22031;BME280;11179;52.106;21.024;2022-07-23T05:13:30;100397.88;;;29.63;42.30
22031;BME280;11179;52.106;21.024;2022-07-23T05:15:56;100400.13;;;29.80;41.95
22031;BME280;11179;52.106;21.024;2022-07-23T05:18:21;100394.34;;;30.10;41.52
22031;BME280;11179;52.106;21.024;2022-07-23T05:20:46;100405.81;;;30.20;41.04
22031;BME280;11179;52.106;21.024;2022-07-23T05:23:12;100401.50;;;30.37;39.96
22031;BME280;11179;52.106;21.024;2022-07-23T05:25:37;100393.13;;;30.51;39.96
22031;BME280;11179;52.106;21.024;2022-07-23T05:28:03;100394.03;;;30.66;39.48
22031;BME280;11179;52.106;21.024;2022-07-23T05:30:28;100391.63;;;30.68;39.47
22031;BME280;11179;52.106;21.024;2022-07-23T05:32:54;100389.69;;;30.79;39.35
22031;BME280;11179;52.106;21.024;2022-07-23T05:35:19;100389.84;;;31.01;38.70
22031;BME280;11179;52.106;21.024;2022-07-23T05:37:44;100389.19;;;31.25;38.32
22031;BME280;11179;52.106;21.024;2022-07-23T05:40:10;100379.19;;;31.63;37.83
22031;BME280;11179;52.106;21.024;2022-07-23T05:42:40;100382.50;;;31.86;36.77
22031;BME280;11179;52.106;21.024;2022-07-23T05:45:06;100379.69;;;32.04;36.93
22031;BME280;11179;52.106;21.024;2022-07-23T05:47:50;100379.28;;;32.13;36.31
22031;BME280;11179;52.106;21.024;2022-07-23T05:50:16;100377.31;;;32.35;35.98
22031;BME280;11179;52.106;21.024;2022-07-23T05:52:42;100380.94;;;32.56;36.06
22031;BME280;11179;52.106;21.024;2022-07-23T05:55:08;100380.09;;;32.77;35.37
22031;BME280;11179;52.106;21.024;2022-07-23T05:57:34;100380.47;;;33.00;34.81
22031;BME280;11179;52.106;21.024;2022-07-23T05:59:59;100374.28;;;33.23;34.90
22031;BME280;11179;52.106;21.024;2022-07-23T06:02:25;100378.66;;;33.49;34.16
22031;BME280;11179;52.106;21.024;2022-07-23T06:04:50;100376.84;;;33.84;33.96
22031;BME280;11179;52.106;21.024;2022-07-23T06:07:15;100381.91;;;34.21;33.00
22031;BME280;11179;52.106;21.024;2022-07-23T06:09:40;100370.41;;;34.35;32.69
22031;BME280;11179;52.106;21.024;2022-07-23T06:12:06;100373.53;;;34.48;32.18
22031;BME280;11179;52.106;21.024;2022-07-23T06:14:32;100373.75;;;34.67;32.63
22031;BME280;11179;52.106;21.024;2022-07-23T06:16:57;100368.81;;;34.75;32.31
22031;BME280;11179;52.106;21.024;2022-07-23T06:19:23;100366.78;;;35.09;31.48
22031;BME280;11179;52.106;21.024;2022-07-23T06:21:48;100366.06;;;35.36;31.01
22031;BME280;11179;52.106;21.024;2022-07-23T06:24:13;100372.72;;;35.56;31.04
22031;BME280;11179;52.106;21.024;2022-07-23T06:26:39;100365.97;;;35.73;30.45
22031;BME280;11179;52.106;21.024;2022-07-23T06:29:04;100365.44;;;36.09;30.18
22031;BME280;11179;52.106;21.024;2022-07-23T06:31:29;100366.28;;;36.33;29.39
22031;BME280;11179;52.106;21.024;2022-07-23T06:33:55;100368.22;;;36.63;29.40
22031;BME280;11179;52.106;21.024;2022-07-23T06:36:20;100364.66;;;36.78;29.15
22031;BME280;11179;52.106;21.024;2022-07-23T06:38:45;100361.22;;;36.87;28.91
22031;BME280;11179;52.106;21.024;2022-07-23T06:41:11;100362.81;;;37.11;28.07
22031;BME280;11179;52.106;21.024;2022-07-23T06:43:36;100362.88;;;37.28;27.86
22031;BME280;11179;52.106;21.024;2022-07-23T06:46:01;100360.31;;;37.13;27.60
22031;BME280;11179;52.106;21.024;2022-07-23T06:48:27;100365.69;;;36.68;28.58
22031;BME280;11179;52.106;21.024;2022-07-23T06:50:54;100368.25;;;36.82;28.40
22031;BME280;11179;52.106;21.024;2022-07-23T06:53:20;100368.66;;;37.04;28.37
22031;BME280;11179;52.106;21.024;2022-07-23T06:55:45;100355.16;;;37.25;28.06
22031;BME280;11179;52.106;21.024;2022-07-23T06:58:11;100356.56;;;37.36;27.88
22031;BME280;11179;52.106;21.024;2022-07-23T07:00:36;100356.34;;;37.07;27.64
22031;BME280;11179;52.106;21.024;2022-07-23T07:03:02;100359.25;;;36.84;27.89
22031;BME280;11179;52.106;21.024;2022-07-23T07:05:27;100347.47;;;37.22;27.91
22031;BME280;11179;52.106;21.024;2022-07-23T07:07:55;100352.28;;;37.64;26.41
22031;BME280;11179;52.106;21.024;2022-07-23T07:10:21;100343.41;;;37.75;26.55
22031;BME280;11179;52.106;21.024;2022-07-23T07:12:46;100345.41;;;37.78;26.41
22031;BME280;11179;52.106;21.024;2022-07-23T07:15:12;100347.28;;;37.84;26.28
22031;BME280;11179;52.106;21.024;2022-07-23T07:17:37;100351.03;;;37.65;26.53
22031;BME280;11179;52.106;21.024;2022-07-23T07:20:03;100360.03;;;37.28;26.81
22031;BME280;11179;52.106;21.024;2022-07-23T07:22:29;100345.53;;;36.95;26.65
22031;BME280;11179;52.106;21.024;2022-07-23T07:24:54;100341.75;;;36.59;27.37
22031;BME280;11179;52.106;21.024;2022-07-23T07:27:20;100343.16;;;36.90;27.66
22031;BME280;11179;52.106;21.024;2022-07-23T07:29:45;100335.41;;;37.50;27.44
22031;BME280;11179;52.106;21.024;2022-07-23T07:32:11;100330.75;;;37.92;27.04
22031;BME280;11179;52.106;21.024;2022-07-23T07:34:36;100333.06;;;38.13;26.30
22031;BME280;11179;52.106;21.024;2022-07-23T07:37:02;100349.13;;;38.27;26.66
22031;BME280;11179;52.106;21.024;2022-07-23T07:39:27;100333.16;;;38.58;26.09
22031;BME280;11179;52.106;21.024;2022-07-23T07:41:52;100334.28;;;38.77;25.50
22031;BME280;11179;52.106;21.024;2022-07-23T07:44:18;100335.38;;;38.67;25.99
22031;BME280;11179;52.106;21.024;2022-07-23T07:46:44;100343.09;;;38.54;25.72
22031;BME280;11179;52.106;21.024;2022-07-23T07:49:09;100334.91;;;38.85;25.18
22031;BME280;11179;52.106;21.024;2022-07-23T07:51:34;100334.28;;;39.06;24.33
22031;BME280;11179;52.106;21.024;2022-07-23T07:54:00;100336.28;;;39.22;24.48
22031;BME280;11179;52.106;21.024;2022-07-23T07:56:25;100334.16;;;39.51;23.87
22031;BME280;11179;52.106;21.024;2022-07-23T07:58:51;100336.44;;;39.44;23.27
22031;BME280;11179;52.106;21.024;2022-07-23T08:01:16;100340.72;;;39.10;23.19
22031;BME280;11179;52.106;21.024;2022-07-23T08:03:42;100334.97;;;39.10;24.21
22031;BME280;11179;52.106;21.024;2022-07-23T08:06:07;100348.03;;;39.27;23.85
22031;BME280;11179;52.106;21.024;2022-07-23T08:08:33;100342.09;;;39.47;23.42
22031;BME280;11179;52.106;21.024;2022-07-23T08:10:58;100345.00;;;39.60;23.49
22031;BME280;11179;52.106;21.024;2022-07-23T08:13:24;100340.91;;;39.45;23.38
22031;BME280;11179;52.106;21.024;2022-07-23T08:15:49;100337.81;;;39.39;23.76
22031;BME280;11179;52.106;21.024;2022-07-23T08:18:14;100332.44;;;39.41;23.44
22031;BME280;11179;52.106;21.024;2022-07-23T08:20:40;100335.56;;;39.59;23.38
22031;BME280;11179;52.106;21.024;2022-07-23T08:23:07;100330.47;;;39.51;23.26
22031;BME280;11179;52.106;21.024;2022-07-23T08:25:42;100333.91;;;39.46;23.12
22031;BME280;11179;52.106;21.024;2022-07-23T08:28:12;100328.81;;;39.66;23.36
22031;BME280;11179;52.106;21.024;2022-07-23T08:30:40;100331.53;;;39.82;24.07
22031;BME280;11179;52.106;21.024;2022-07-23T08:33:11;100343.72;;;39.74;23.69
22031;BME280;11179;52.106;21.024;2022-07-23T08:35:40;100334.31;;;39.73;23.56
22031;BME280;11179;52.106;21.024;2022-07-23T08:38:08;100335.22;;;39.57;22.92
22031;BME280;11179;52.106;21.024;2022-07-23T08:40:37;100330.56;;;38.93;23.57
22031;BME280;11179;52.106;21.024;2022-07-23T08:43:26;100327.28;;;38.62;24.89
22031;BME280;11179;52.106;21.024;2022-07-23T08:45:53;100330.81;;;38.99;24.76
22031;BME280;11179;52.106;21.024;2022-07-23T08:48:21;100334.13;;;38.97;23.78
22031;BME280;11179;52.106;21.024;2022-07-23T08:50:51;100334.78;;;39.17;23.74
22031;BME280;11179;52.106;21.024;2022-07-23T08:53:18;100327.72;;;39.47;22.99
22031;BME280;11179;52.106;21.024;2022-07-23T08:55:45;100330.28;;;39.71;22.66
22031;BME280;11179;52.106;21.024;2022-07-23T08:58:11;100326.59;;;39.70;23.19
22031;BME280;11179;52.106;21.024;2022-07-23T09:00:36;100330.53;;;39.63;23.17
22031;BME280;11179;52.106;21.024;2022-07-23T09:03:02;100330.97;;;39.62;23.58
22031;BME280;11179;52.106;21.024;2022-07-23T09:05:27;100330.16;;;39.74;23.21
22031;BME280;11179;52.106;21.024;2022-07-23T09:08:15;100330.16;;;39.87;22.69
22031;BME280;11179;52.106;21.024;2022-07-23T09:16:15;100322.78;;;39.06;23.69
22031;BME280;11179;52.106;21.024;2022-07-23T09:18:43;100325.72;;;39.19;23.94
22031;BME280;11179;52.106;21.024;2022-07-23T09:21:20;100327.44;;;39.16;23.28
22031;BME280;11179;52.106;21.024;2022-07-23T09:29:09;100315.56;;;38.56;23.41
22031;BME280;11179;52.106;21.024;2022-07-23T09:31:50;100315.41;;;38.92;23.80
22031;BME280;11179;52.106;21.024;2022-07-23T09:34:19;100312.66;;;39.02;23.28
22031;BME280;11179;52.106;21.024;2022-07-23T09:36:46;100316.97;;;38.81;23.75
22031;BME280;11179;52.106;21.024;2022-07-23T09:39:14;100309.22;;;38.94;22.60
22031;BME280;11179;52.106;21.024;2022-07-23T09:41:42;100319.19;;;39.02;22.64
22031;BME280;11179;52.106;21.024;2022-07-23T09:44:17;100316.91;;;38.97;23.19
22031;BME280;11179;52.106;21.024;2022-07-23T09:46:48;100308.25;;;38.84;22.94
22031;BME280;11179;52.106;21.024;2022-07-23T09:49:17;100307.09;;;38.82;23.35
22031;BME280;11179;52.106;21.024;2022-07-23T09:51:55;100303.25;;;38.43;23.57
22031;BME280;11179;52.106;21.024;2022-07-23T09:56:58;100301.75;;;38.06;22.93
22031;BME280;11179;52.106;21.024;2022-07-23T09:59:26;100303.22;;;37.78;23.58
22031;BME280;11179;52.106;21.024;2022-07-23T10:01:57;100294.06;;;37.83;22.60
22031;BME280;11179;52.106;21.024;2022-07-23T10:04:25;100301.69;;;37.74;22.85
22031;BME280;11179;52.106;21.024;2022-07-23T10:06:56;100297.47;;;37.62;23.90
22031;BME280;11179;52.106;21.024;2022-07-23T10:09:27;100298.09;;;37.53;24.44
22031;BME280;11179;52.106;21.024;2022-07-23T10:12:01;100294.25;;;37.60;23.60
22031;BME280;11179;52.106;21.024;2022-07-23T10:14:32;100296.75;;;37.58;23.36
22031;BME280;11179;52.106;21.024;2022-07-23T10:17:01;100291.94;;;37.71;22.93
22031;BME280;11179;52.106;21.024;2022-07-23T10:19:27;100300.84;;;37.57;23.46
22031;BME280;11179;52.106;21.024;2022-07-23T10:21:58;100275.50;;;37.39;23.76
22031;BME280;11179;52.106;21.024;2022-07-23T10:28:12;100277.41;;;37.46;23.24
22031;BME280;11179;52.106;21.024;2022-07-23T10:30:15;100284.16;;;37.36;22.47
22031;BME280;11179;52.106;21.024;2022-07-23T10:35:47;100275.25;;;37.14;22.97
22031;BME280;11179;52.106;21.024;2022-07-23T10:38:30;100274.50;;;36.90;24.05
22031;BME280;11179;52.106;21.024;2022-07-23T10:41:00;100275.16;;;36.78;23.97
22031;BME280;11179;52.106;21.024;2022-07-23T10:43:27;100279.88;;;36.88;23.92
22031;BME280;11179;52.106;21.024;2022-07-23T10:45:55;100274.94;;;36.89;23.62
22031;BME280;11179;52.106;21.024;2022-07-23T10:48:25;100277.22;;;36.58;24.06
22031;BME280;11179;52.106;21.024;2022-07-23T10:51:14;100276.84;;;36.56;24.44
22031;BME280;11179;52.106;21.024;2022-07-23T10:56:14;100275.09;;;36.62;23.70
22031;BME280;11179;52.106;21.024;2022-07-23T10:58:48;100269.47;;;36.35;24.24
22031;BME280;11179;52.106;21.024;2022-07-23T11:01:33;100272.38;;;36.55;24.31
22031;BME280;11179;52.106;21.024;2022-07-23T11:03:59;100276.06;;;36.75;24.36
22031;BME280;11179;52.106;21.024;2022-07-23T11:09:30;100265.56;;;36.68;24.92
22031;BME280;11179;52.106;21.024;2022-07-23T11:17:27;100266.66;;;36.55;24.50
22031;BME280;11179;52.106;21.024;2022-07-23T11:22:58;100267.88;;;36.54;24.19
22031;BME280;11179;52.106;21.024;2022-07-23T11:27:50;100260.34;;;36.20;24.31
22031;BME280;11179;52.106;21.024;2022-07-23T11:35:46;100270.59;;;36.18;24.86
22031;BME280;11179;52.106;21.024;2022-07-23T11:38:20;100252.63;;;36.17;25.81
22031;BME280;11179;52.106;21.024;2022-07-23T11:40:54;100253.50;;;36.14;25.61
22031;BME280;11179;52.106;21.024;2022-07-23T11:43:22;100252.81;;;36.06;25.22
22031;BME280;11179;52.106;21.024;2022-07-23T11:45:50;100248.75;;;36.04;24.91
22031;BME280;11179;52.106;21.024;2022-07-23T11:50:43;100247.91;;;36.07;24.90
22031;BME280;11179;52.106;21.024;2022-07-23T11:53:09;100248.00;;;36.00;25.34
22031;BME280;11179;52.106;21.024;2022-07-23T11:55:34;100242.81;;;35.95;25.11
22031;BME280;11179;52.106;21.024;2022-07-23T11:58:00;100233.59;;;35.84;25.28
22031;BME280;11179;52.106;21.024;2022-07-23T12:00:28;100229.09;;;35.59;25.03
22031;BME280;11179;52.106;21.024;2022-07-23T12:03:00;100229.69;;;35.47;26.01
22031;BME280;11179;52.106;21.024;2022-07-23T12:07:55;100227.06;;;35.33;26.14
22031;BME280;11179;52.106;21.024;2022-07-23T12:10:23;100214.75;;;35.39;26.41
22031;BME280;11179;52.106;21.024;2022-07-23T12:12:50;100218.69;;;35.45;26.28
22031;BME280;11179;52.106;21.024;2022-07-23T12:15:20;100217.72;;;35.56;26.72
22031;BME280;11179;52.106;21.024;2022-07-23T12:17:48;100212.63;;;35.43;26.45
22031;BME280;11179;52.106;21.024;2022-07-23T12:20:16;100206.59;;;35.38;25.50
22031;BME280;11179;52.106;21.024;2022-07-23T12:22:45;100206.78;;;35.27;25.63
22031;BME280;11179;52.106;21.024;2022-07-23T12:25:14;100203.19;;;35.20;26.27
22031;BME280;11179;52.106;21.024;2022-07-23T12:27:41;100197.16;;;35.14;25.94
22031;BME280;11179;52.106;21.024;2022-07-23T12:30:23;100193.50;;;35.14;26.96
22031;BME280;11179;52.106;21.024;2022-07-23T12:32:51;100190.94;;;35.23;27.09
22031;BME280;11179;52.106;21.024;2022-07-23T12:35:17;100188.72;;;35.34;26.42
22031;BME280;11179;52.106;21.024;2022-07-23T12:37:45;100173.88;;;35.42;25.93
22031;BME280;11179;52.106;21.024;2022-07-23T12:40:45;100183.06;;;35.30;25.63
22031;BME280;11179;52.106;21.024;2022-07-23T12:43:19;100175.94;;;34.88;25.33
22031;BME280;11179;52.106;21.024;2022-07-23T12:50:53;100174.75;;;34.52;26.37
22031;BME280;11179;52.106;21.024;2022-07-23T12:53:40;100164.88;;;34.26;26.52
22031;BME280;11179;52.106;21.024;2022-07-23T13:04:01;100157.75;;;33.62;26.97
22031;BME280;11179;52.106;21.024;2022-07-23T13:06:29;100149.66;;;33.57;27.99
22031;BME280;11179;52.106;21.024;2022-07-23T13:08:55;100139.44;;;33.63;27.79
22031;BME280;11179;52.106;21.024;2022-07-23T13:11:21;100139.84;;;33.65;27.67
22031;BME280;11179;52.106;21.024;2022-07-23T13:13:46;100142.56;;;33.80;27.31
22031;BME280;11179;52.106;21.024;2022-07-23T13:16:12;100137.31;;;33.78;27.30
22031;BME280;11179;52.106;21.024;2022-07-23T13:18:37;100141.84;;;33.68;26.68
22031;BME280;11179;52.106;21.024;2022-07-23T13:21:04;100146.69;;;33.71;27.10
22031;BME280;11179;52.106;21.024;2022-07-23T13:23:30;100147.63;;;33.58;27.07
22031;BME280;11179;52.106;21.024;2022-07-23T13:25:55;100145.19;;;33.56;27.15
22031;BME280;11179;52.106;21.024;2022-07-23T13:28:22;100144.38;;;33.56;27.15
22031;BME280;11179;52.106;21.024;2022-07-23T13:30:49;100143.13;;;33.60;27.06
22031;BME280;11179;52.106;21.024;2022-07-23T13:33:19;100138.66;;;33.59;27.26
22031;BME280;11179;52.106;21.024;2022-07-23T13:35:45;100140.38;;;33.50;27.30
22031;BME280;11179;52.106;21.024;2022-07-23T13:38:11;100141.22;;;33.47;27.20
22031;BME280;11179;52.106;21.024;2022-07-23T13:40:41;100141.78;;;33.72;27.29